createdAt,value
2022-12-20T00:00:57.091Z,47.37
2022-12-20T00:03:20.235Z,48.60
2022-12-20T00:05:42.703Z,47.13
2022-12-20T00:08:04.359Z,46.97
2022-12-20T00:10:25.940Z,45.70
2022-12-20T00:12:47.455Z,45.40
2022-12-20T00:15:09.812Z,49.10
2022-12-20T00:17:31.602Z,45.97
2022-12-20T00:19:53.121Z,51.50
2022-12-20T00:22:14.879Z,43.97
2022-12-20T00:24:37.125Z,48.67
2022-12-20T00:26:58.685Z,42.80
2022-12-20T00:29:20.144Z,49.37
2022-12-20T00:31:41.661Z,48.27
2022-12-20T00:34:03.472Z,45.50
2022-12-20T00:36:27.281Z,47.17
2022-12-20T00:38:50.904Z,46.83
2022-12-20T00:41:16.363Z,48.80
2022-12-20T00:43:39.501Z,44.73
2022-12-20T00:46:01.526Z,45.57
2022-12-20T00:48:23.388Z,50.30
2022-12-20T00:50:44.874Z,45.93
2022-12-20T00:53:09.903Z,47.87
2022-12-20T00:55:31.392Z,49.40
2022-12-20T00:57:52.873Z,44.53
2022-12-20T01:00:15.418Z,44.87
2022-12-20T01:02:37.134Z,45.47
2022-12-20T01:04:58.907Z,47.93
2022-12-20T01:07:20.405Z,45.43
2022-12-20T01:09:41.899Z,47.53
2022-12-20T01:12:03.745Z,50.73
2022-12-20T01:14:25.228Z,48.47
2022-12-20T01:16:48.185Z,48.07
2022-12-20T01:19:13.239Z,46.80
2022-12-20T01:21:36.014Z,44.90
2022-12-20T01:23:57.717Z,43.10
2022-12-20T01:26:22.234Z,51.40
2022-12-20T01:28:45.700Z,46.10
2022-12-20T01:31:12.490Z,51.57
2022-12-20T01:33:34.832Z,45.27
2022-12-20T01:35:58.468Z,48.83
2022-12-20T01:38:19.929Z,43.67
2022-12-20T01:40:41.438Z,48.00
2022-12-20T01:43:02.918Z,45.93
2022-12-20T01:45:30.995Z,47.37
2022-12-20T01:47:52.724Z,48.97
2022-12-20T01:50:14.465Z,49.97
2022-12-20T01:52:40.908Z,50.00
2022-12-20T01:55:08.722Z,51.00
2022-12-20T01:57:41.101Z,49.83
2022-12-20T02:00:04.574Z,52.27
2022-12-20T02:02:27.126Z,50.60
2022-12-20T02:04:48.693Z,51.33
2022-12-20T02:07:17.487Z,51.47
2022-12-20T02:09:39.660Z,51.97
2022-12-20T02:12:03.787Z,50.60
2022-12-20T02:15:13.229Z,48.13
2022-12-20T02:18:02.189Z,49.53
2022-12-20T02:20:39.515Z,48.70
2022-12-20T02:23:22.588Z,50.73
2022-12-20T02:26:04.716Z,51.83
2022-12-20T02:28:52.152Z,49.87
2022-12-20T02:31:18.930Z,50.93
2022-12-20T02:33:48.030Z,45.77
2022-12-20T02:36:09.734Z,49.13
2022-12-20T02:38:35.843Z,47.13
2022-12-20T02:41:27.187Z,49.00
2022-12-20T02:44:12.993Z,46.50
2022-12-20T02:46:36.178Z,46.63
2022-12-20T02:49:03.318Z,49.00
2022-12-20T02:51:28.703Z,49.87
2022-12-20T02:53:50.783Z,52.00
2022-12-20T02:56:36.438Z,49.93
2022-12-20T02:59:21.469Z,46.57
2022-12-20T03:01:49.906Z,51.53
2022-12-20T03:04:12.605Z,44.13
2022-12-20T03:06:34.544Z,50.00
2022-12-20T03:08:56.209Z,48.43
2022-12-20T03:11:17.743Z,45.97
2022-12-20T03:13:39.352Z,48.60
2022-12-20T03:16:00.849Z,47.70
2022-12-20T03:18:22.366Z,48.30
2022-12-20T03:20:44.287Z,46.93
2022-12-20T03:23:06.654Z,50.47
2022-12-20T03:25:28.302Z,45.57
2022-12-20T03:27:49.811Z,49.83
2022-12-20T03:30:12.132Z,46.83
2022-12-20T03:32:33.695Z,53.53
2022-12-20T03:34:55.189Z,48.13
2022-12-20T03:37:16.802Z,42.37
2022-12-20T03:39:38.290Z,48.53
2022-12-20T03:41:59.792Z,54.73
2022-12-20T03:44:21.481Z,47.60
2022-12-20T03:46:43.068Z,46.23
2022-12-20T03:49:04.718Z,46.83
2022-12-20T03:51:26.291Z,48.63
2022-12-20T03:53:47.763Z,41.77
2022-12-20T03:56:09.292Z,49.70
2022-12-20T03:58:30.795Z,48.17
2022-12-20T04:00:52.376Z,46.30
2022-12-20T04:03:13.942Z,44.10
2022-12-20T04:05:35.523Z,45.37
2022-12-20T04:07:57.007Z,45.03
2022-12-20T04:10:18.515Z,44.53
2022-12-20T04:12:40.030Z,48.10
2022-12-20T04:15:01.651Z,46.47
2022-12-20T04:17:23.171Z,42.33
2022-12-20T04:19:44.653Z,44.47
2022-12-20T04:22:06.515Z,46.40
2022-12-20T04:24:28.145Z,46.33
2022-12-20T04:26:49.724Z,47.17
2022-12-20T04:29:11.331Z,46.17
2022-12-20T04:31:33.371Z,46.30
2022-12-20T04:33:55.206Z,48.70
2022-12-20T04:36:16.795Z,45.70
2022-12-20T04:38:38.280Z,41.53
2022-12-20T04:40:59.953Z,45.70
2022-12-20T04:43:22.953Z,45.20
2022-12-20T04:45:45.277Z,48.37
2022-12-20T04:48:36.922Z,45.07
2022-12-20T04:50:49.633Z,43.70
2022-12-20T04:53:30.249Z,44.97
2022-12-20T04:55:51.951Z,48.93
2022-12-20T04:58:13.450Z,42.37
2022-12-20T05:00:35.406Z,44.97
2022-12-20T05:02:56.980Z,46.80
2022-12-20T05:05:18.624Z,45.00
2022-12-20T05:07:40.306Z,47.90
2022-12-20T05:10:01.859Z,46.90
2022-12-20T05:12:23.346Z,46.20
2022-12-20T05:14:44.903Z,48.23
2022-12-20T05:17:06.522Z,47.80
2022-12-20T05:19:27.994Z,45.03
2022-12-20T05:22:08.075Z,45.67
2022-12-20T05:24:48.147Z,44.23
2022-12-20T05:27:09.696Z,47.40
2022-12-20T05:29:31.187Z,44.43
2022-12-20T05:31:52.780Z,42.40
2022-12-20T05:34:14.400Z,44.13
2022-12-20T05:36:35.900Z,45.27
2022-12-20T05:39:03.650Z,44.17
2022-12-20T05:41:26.008Z,43.63
2022-12-20T05:43:47.467Z,42.73
2022-12-20T05:46:09.077Z,44.87
2022-12-20T05:48:30.660Z,45.97
2022-12-20T05:50:52.177Z,41.43
2022-12-20T05:53:15.558Z,40.73
2022-12-20T05:55:37.089Z,44.57
2022-12-20T05:57:58.573Z,43.40
2022-12-20T06:00:20.341Z,42.60
2022-12-20T06:02:42.082Z,44.47
2022-12-20T06:05:03.835Z,40.47
2022-12-20T06:07:28.950Z,39.50
2022-12-20T06:09:50.579Z,40.67
2022-12-20T06:12:12.071Z,43.10
2022-12-20T06:14:33.545Z,44.70
2022-12-20T06:16:55.102Z,37.57
2022-12-20T06:19:21.416Z,40.63
2022-12-20T06:21:43.443Z,46.00
2022-12-20T06:24:05.747Z,40.57
2022-12-20T06:26:27.665Z,43.23
2022-12-20T06:28:52.798Z,41.80
2022-12-20T06:31:14.440Z,38.13
2022-12-20T06:33:36.681Z,41.33
2022-12-20T06:35:58.143Z,42.67
2022-12-20T06:38:19.662Z,42.30
2022-12-20T06:40:41.187Z,44.60
2022-12-20T06:43:02.674Z,46.50
2022-12-20T06:45:24.168Z,43.27
2022-12-20T06:47:45.695Z,40.30
2022-12-20T06:50:07.929Z,46.80
2022-12-20T06:52:29.460Z,44.93
2022-12-20T06:54:50.934Z,47.63
2022-12-20T06:57:12.555Z,45.70
2022-12-20T06:59:34.042Z,43.97
2022-12-20T07:01:55.690Z,47.70
2022-12-20T07:04:17.395Z,45.13
2022-12-20T07:06:38.873Z,43.73
2022-12-20T07:09:00.411Z,45.67
2022-12-20T07:11:22.353Z,42.10
2022-12-20T07:13:43.828Z,44.67
2022-12-20T07:16:05.801Z,42.07
2022-12-20T07:18:27.420Z,42.87
2022-12-20T07:20:48.904Z,40.70
2022-12-20T07:23:10.376Z,39.70
2022-12-20T07:25:31.996Z,42.03
2022-12-20T07:27:53.956Z,37.87
2022-12-20T07:30:16.501Z,43.17
2022-12-20T07:32:37.959Z,39.20
2022-12-20T07:34:59.476Z,41.93
2022-12-20T07:37:20.974Z,42.60
2022-12-20T07:39:42.451Z,42.30
2022-12-20T07:42:05.236Z,42.33
2022-12-20T07:44:26.729Z,39.80
2022-12-20T07:46:48.356Z,43.20
2022-12-20T07:49:10.077Z,44.20
2022-12-20T07:51:36.427Z,38.83
2022-12-20T07:54:22.617Z,41.07
2022-12-20T07:56:47.676Z,41.53
2022-12-20T07:59:13.049Z,42.70
2022-12-20T08:01:35.414Z,41.90
2022-12-20T08:04:12.970Z,44.10
2022-12-20T08:06:37.121Z,41.17
2022-12-20T08:09:02.884Z,44.37
2022-12-20T08:11:25.942Z,45.53
2022-12-20T08:13:54.189Z,44.30
2022-12-20T08:16:19.183Z,43.67
2022-12-20T08:18:40.723Z,43.80
2022-12-20T08:21:02.244Z,45.93
2022-12-20T08:23:23.697Z,39.07
2022-12-20T08:25:45.365Z,44.60
2022-12-20T08:28:06.855Z,42.10
2022-12-20T08:30:28.977Z,46.97
2022-12-20T08:32:50.519Z,45.50
2022-12-20T08:35:13.117Z,44.53
2022-12-20T08:37:34.722Z,43.87
2022-12-20T08:39:56.196Z,40.43
2022-12-20T08:42:17.750Z,42.80
2022-12-20T08:44:39.235Z,46.33
2022-12-20T08:47:00.752Z,46.90
2022-12-20T08:49:22.320Z,43.23
2022-12-20T08:51:43.904Z,40.07
2022-12-20T08:54:05.540Z,40.40
2022-12-20T08:56:27.037Z,39.07
2022-12-20T08:58:48.781Z,38.53
2022-12-20T09:01:13.222Z,36.83
2022-12-20T09:03:36.188Z,38.47
2022-12-20T09:05:59.345Z,37.87
2022-12-20T09:08:20.914Z,39.67
2022-12-20T09:10:43.325Z,36.70
2022-12-20T09:13:04.768Z,39.77
2022-12-20T09:15:27.812Z,34.30
2022-12-20T09:17:49.341Z,32.77
2022-12-20T09:20:11.012Z,31.33
2022-12-20T09:22:32.457Z,31.53
2022-12-20T09:24:53.904Z,31.80
2022-12-20T09:27:15.422Z,30.37
2022-12-20T09:29:36.908Z,37.27
2022-12-20T09:31:58.406Z,37.37
2022-12-20T09:34:19.861Z,36.17
2022-12-20T09:36:41.361Z,35.33
2022-12-20T09:39:02.836Z,35.47
2022-12-20T09:41:38.273Z,34.83
2022-12-20T09:44:05.641Z,37.23
2022-12-20T09:46:28.050Z,34.57
2022-12-20T09:48:50.906Z,34.73
2022-12-20T09:51:41.880Z,35.73
2022-12-20T09:54:09.162Z,35.23
2022-12-20T09:56:36.622Z,34.40
2022-12-20T09:59:06.838Z,33.10
2022-12-20T10:01:38.069Z,31.83
2022-12-20T10:04:05.008Z,31.33
2022-12-20T10:06:55.589Z,32.30
2022-12-20T10:09:46.381Z,32.47
2022-12-20T10:12:15.501Z,29.27
2022-12-20T10:14:55.348Z,32.50
2022-12-20T10:17:19.638Z,31.43
2022-12-20T10:19:59.348Z,29.30
2022-12-20T10:22:26.058Z,29.57
2022-12-20T10:25:01.875Z,31.13
2022-12-20T10:27:24.670Z,34.63
2022-12-20T10:29:48.235Z,32.73
2022-12-20T10:32:22.259Z,33.33
2022-12-20T10:35:01.306Z,31.30
2022-12-20T10:37:22.868Z,34.43
2022-12-20T10:39:48.998Z,31.53
2022-12-20T10:42:36.025Z,30.63
2022-12-20T10:44:57.819Z,30.50
2022-12-20T10:47:34.245Z,34.07
2022-12-20T10:50:08.878Z,29.47
2022-12-20T10:52:30.356Z,29.80
2022-12-20T10:54:51.850Z,27.50
2022-12-20T10:57:25.133Z,29.03
2022-12-20T10:59:55.341Z,29.67
2022-12-20T11:02:35.009Z,27.20
2022-12-20T11:05:01.337Z,32.63
2022-12-20T11:07:27.451Z,30.83
2022-12-20T11:09:57.154Z,30.10
2022-12-20T11:12:18.768Z,36.10
2022-12-20T11:14:42.000Z,31.93
2022-12-20T11:17:11.588Z,31.43
2022-12-20T11:19:59.476Z,36.03
2022-12-20T11:22:37.437Z,31.23
2022-12-20T11:25:26.007Z,29.20
2022-12-20T11:28:03.770Z,28.03
2022-12-20T11:30:53.760Z,28.87
2022-12-20T11:33:50.988Z,31.57
2022-12-20T11:36:27.294Z,30.47
2022-12-20T11:39:31.263Z,32.60
2022-12-20T11:42:11.113Z,31.50
2022-12-20T11:44:50.157Z,29.23
2022-12-20T11:47:50.094Z,31.00
2022-12-20T11:50:36.343Z,32.07
2022-12-20T11:53:08.790Z,30.80
2022-12-20T11:55:35.523Z,29.37
2022-12-20T11:58:18.755Z,30.10
2022-12-20T12:00:44.920Z,32.40
2022-12-20T12:03:32.684Z,28.13
2022-12-20T12:06:00.770Z,26.90
2022-12-20T12:08:29.180Z,28.93
2022-12-20T12:11:07.060Z,28.63
2022-12-20T12:13:31.911Z,31.33
2022-12-20T12:16:05.323Z,27.23
2022-12-20T12:18:32.032Z,31.83
2022-12-20T12:21:10.108Z,31.03
2022-12-20T12:23:46.780Z,31.10
2022-12-20T12:26:18.456Z,29.67
2022-12-20T12:28:39.994Z,34.03
2022-12-20T12:31:10.757Z,34.67
2022-12-20T12:33:39.252Z,30.20
2022-12-20T12:36:46.867Z,31.80
2022-12-20T12:39:33.557Z,31.87
2022-12-20T12:42:07.303Z,31.93
2022-12-20T12:44:49.578Z,32.30
2022-12-20T12:47:28.420Z,31.43
2022-12-20T12:49:52.974Z,33.17
2022-12-20T12:52:36.264Z,34.43
2022-12-20T12:54:57.762Z,31.20
2022-12-20T12:57:19.581Z,33.63
2022-12-20T12:59:49.475Z,31.03
2022-12-20T13:02:14.317Z,32.07
2022-12-20T13:05:06.820Z,30.70
2022-12-20T13:07:35.123Z,43.87
2022-12-20T13:09:56.683Z,34.23
2022-12-20T13:12:36.271Z,33.93
2022-12-20T13:14:57.788Z,35.40
2022-12-20T13:17:25.755Z,34.53
2022-12-20T13:19:53.467Z,31.50
2022-12-20T13:22:17.711Z,32.23
2022-12-20T13:24:56.331Z,29.43
2022-12-20T13:27:37.016Z,30.97
2022-12-20T13:30:04.634Z,31.03
2022-12-20T13:32:47.751Z,30.70
2022-12-20T13:35:24.701Z,37.97
2022-12-20T13:38:02.060Z,35.87
2022-12-20T13:40:38.892Z,31.03
2022-12-20T13:43:07.725Z,31.87
2022-12-20T13:45:29.780Z,30.83
2022-12-20T13:47:59.917Z,33.77
2022-12-20T13:50:27.438Z,29.57
2022-12-20T13:52:49.324Z,28.47
2022-12-20T13:55:30.960Z,27.20
2022-12-20T13:57:54.042Z,28.93
2022-12-20T14:00:25.515Z,31.23
2022-12-20T14:02:47.257Z,30.17
2022-12-20T14:05:26.717Z,30.40
2022-12-20T14:07:58.111Z,32.17
2022-12-20T14:10:23.886Z,29.80
2022-12-20T14:12:46.280Z,30.30
2022-12-20T14:15:34.115Z,27.87
2022-12-20T14:17:55.716Z,29.90
2022-12-20T14:20:22.465Z,32.70
2022-12-20T14:22:59.261Z,36.03
2022-12-20T14:25:38.677Z,30.83
2022-12-20T14:28:00.533Z,30.73
2022-12-20T14:30:32.019Z,30.23
2022-12-20T14:32:55.444Z,30.23
2022-12-20T14:35:21.067Z,28.57
2022-12-20T14:37:53.379Z,28.77
2022-12-20T14:40:19.373Z,27.07
2022-12-20T14:42:40.928Z,28.20
2022-12-20T14:45:27.059Z,27.53
2022-12-20T14:47:51.822Z,24.87
2022-12-20T14:50:26.470Z,30.83
2022-12-20T14:52:48.032Z,29.23
2022-12-20T14:55:17.811Z,36.47
2022-12-20T14:57:45.278Z,25.77
2022-12-20T15:00:15.309Z,29.47
2022-12-20T15:02:41.593Z,28.93
2022-12-20T15:05:35.636Z,28.27
2022-12-20T15:08:15.399Z,31.93
2022-12-20T15:10:37.245Z,27.83
2022-12-20T15:12:58.695Z,26.67
2022-12-20T15:15:34.627Z,24.93
2022-12-20T15:17:56.127Z,25.23
2022-12-20T15:20:17.705Z,26.30
2022-12-20T15:22:39.976Z,27.50
2022-12-20T15:25:01.516Z,30.47
2022-12-20T15:27:24.431Z,26.93
2022-12-20T15:29:45.858Z,24.97
2022-12-20T15:32:15.833Z,25.93
2022-12-20T15:34:38.770Z,26.43
2022-12-20T15:37:00.363Z,24.03
2022-12-20T15:39:22.331Z,26.77
2022-12-20T15:41:47.157Z,31.97
2022-12-20T15:44:17.551Z,30.47
2022-12-20T15:46:39.066Z,27.77
2022-12-20T15:49:00.522Z,28.37
2022-12-20T15:51:30.137Z,29.57
2022-12-20T15:53:51.614Z,29.50
2022-12-20T15:56:19.414Z,30.03
2022-12-20T15:58:40.858Z,27.70
2022-12-20T16:01:03.463Z,69.90
2022-12-20T16:03:30.660Z,34.40
2022-12-20T16:05:52.472Z,28.07
2022-12-20T16:08:14.137Z,28.20
2022-12-20T16:10:36.405Z,26.17
2022-12-20T16:12:57.906Z,28.07
2022-12-20T16:15:22.309Z,32.37
2022-12-20T16:17:43.809Z,28.50
2022-12-20T16:20:06.096Z,30.73
2022-12-20T16:22:27.516Z,29.83
2022-12-20T16:24:49.483Z,31.43
2022-12-20T16:27:11.417Z,57.83
2022-12-20T16:29:32.862Z,25.57
2022-12-20T16:31:54.358Z,30.33
2022-12-20T16:34:17.088Z,30.00
2022-12-20T16:36:38.618Z,28.27
2022-12-20T16:39:00.059Z,29.73
2022-12-20T16:41:24.826Z,32.73
2022-12-20T16:43:47.926Z,26.07
2022-12-20T16:46:12.586Z,28.57
2022-12-20T16:48:34.602Z,28.93
2022-12-20T16:50:57.209Z,25.50
2022-12-20T16:53:19.258Z,25.73
2022-12-20T16:55:40.930Z,28.33
2022-12-20T16:58:02.374Z,26.43
2022-12-20T17:00:27.055Z,29.70
2022-12-20T17:02:49.716Z,27.57
2022-12-20T17:05:25.781Z,27.17
2022-12-20T17:07:47.220Z,27.13
2022-12-20T17:10:10.157Z,27.50
2022-12-20T17:12:31.597Z,25.33
2022-12-20T17:14:53.109Z,27.77
2022-12-20T17:17:15.406Z,27.33
2022-12-20T17:19:37.118Z,30.70
2022-12-20T17:24:37.685Z,29.13
2022-12-20T17:27:00.403Z,26.77
2022-12-20T17:29:22.109Z,30.23
2022-12-20T17:31:46.401Z,27.27
2022-12-20T17:34:22.756Z,31.00
2022-12-20T17:36:45.139Z,31.10
2022-12-20T17:39:06.583Z,29.80
2022-12-20T17:41:31.292Z,30.87
2022-12-20T17:43:53.559Z,28.43
2022-12-20T17:46:15.301Z,30.23
2022-12-20T17:48:43.425Z,29.90
2022-12-20T17:51:14.901Z,30.47
2022-12-20T17:53:36.338Z,31.53
2022-12-20T17:55:57.797Z,29.80
2022-12-20T17:58:19.231Z,29.80
2022-12-20T18:00:40.847Z,31.27
2022-12-20T18:03:02.403Z,30.37
2022-12-20T18:05:24.978Z,29.20
2022-12-20T18:07:54.406Z,32.80
2022-12-20T18:10:15.913Z,29.90
2022-12-20T18:12:38.973Z,31.63
2022-12-20T18:15:01.034Z,29.77
2022-12-20T18:17:22.497Z,29.03
2022-12-20T18:19:44.029Z,28.67
2022-12-20T18:22:06.561Z,29.80
2022-12-20T18:24:28.248Z,28.67
2022-12-20T18:26:49.725Z,32.77
2022-12-20T18:29:11.438Z,36.23
2022-12-20T18:31:34.554Z,34.10
2022-12-20T18:33:58.252Z,29.17
2022-12-20T18:36:25.798Z,26.00
2022-12-20T18:38:48.994Z,25.47
2022-12-20T18:41:19.413Z,26.07
2022-12-20T18:43:41.198Z,28.00
2022-12-20T18:46:07.819Z,26.63
2022-12-20T18:48:29.378Z,26.23
2022-12-20T18:50:50.897Z,29.03
2022-12-20T18:53:12.383Z,29.27
2022-12-20T18:55:36.899Z,26.17
2022-12-20T18:57:58.326Z,27.80
2022-12-20T19:00:20.512Z,24.40
2022-12-20T19:02:42.920Z,25.43
2022-12-20T19:05:04.803Z,25.40
2022-12-20T19:07:26.321Z,22.93
2022-12-20T19:09:47.809Z,25.30
2022-12-20T19:12:09.258Z,23.40
2022-12-20T19:14:30.718Z,25.33
2022-12-20T19:16:52.223Z,21.47
2022-12-20T19:19:14.054Z,26.37
2022-12-20T19:21:37.779Z,21.97
2022-12-20T19:24:03.926Z,22.57
2022-12-20T19:26:30.328Z,21.70
2022-12-20T19:28:51.883Z,25.33
2022-12-20T19:31:24.913Z,27.63
2022-12-20T19:33:48.018Z,28.93
2022-12-20T19:36:12.891Z,25.67
2022-12-20T19:38:34.337Z,29.13
2022-12-20T19:40:55.867Z,26.73
2022-12-20T19:43:17.318Z,28.40
2022-12-20T19:45:39.005Z,29.73
2022-12-20T19:48:00.469Z,34.40
2022-12-20T19:50:21.962Z,30.60
2022-12-20T19:52:43.402Z,27.93
2022-12-20T19:55:05.289Z,27.10
2022-12-20T19:57:26.806Z,29.50
2022-12-20T19:59:52.258Z,21.37
2022-12-20T20:02:17.296Z,25.30
2022-12-20T20:04:38.825Z,28.00
2022-12-20T20:07:00.460Z,27.23
2022-12-20T20:09:22.141Z,27.73
2022-12-20T20:11:43.607Z,27.27
2022-12-20T20:14:09.244Z,26.00
2022-12-20T20:16:30.911Z,30.20
2022-12-20T20:18:52.534Z,28.83
2022-12-20T20:21:17.946Z,29.40
2022-12-20T20:23:40.032Z,26.83
2022-12-20T20:26:01.558Z,26.00
2022-12-20T20:28:31.240Z,27.73
2022-12-20T20:30:56.595Z,24.07
2022-12-20T20:33:18.199Z,25.20
2022-12-20T20:35:40.424Z,26.37
2022-12-20T20:38:02.101Z,23.20
2022-12-20T20:40:23.546Z,26.50
2022-12-20T20:42:45.033Z,26.77
2022-12-20T20:45:07.389Z,26.27
2022-12-20T20:47:28.864Z,26.73
2022-12-20T20:49:52.721Z,29.23
2022-12-20T20:52:14.241Z,25.87
2022-12-20T20:54:35.691Z,25.70
2022-12-20T20:56:57.169Z,33.53
2022-12-20T20:59:18.679Z,25.83
2022-12-20T21:01:40.259Z,27.00
2022-12-20T21:04:02.193Z,27.07
2022-12-20T21:06:41.668Z,25.33
2022-12-20T21:09:04.352Z,25.07
2022-12-20T21:11:25.879Z,24.83
2022-12-20T21:13:47.427Z,26.23
2022-12-20T21:16:11.488Z,27.33
2022-12-20T21:18:33.044Z,29.07
2022-12-20T21:20:54.523Z,27.77
2022-12-20T21:23:15.953Z,26.30
2022-12-20T21:25:37.488Z,30.33
2022-12-20T21:27:59.002Z,31.80
2022-12-20T21:30:20.506Z,25.60
2022-12-20T21:32:41.994Z,29.80
2022-12-20T21:35:03.532Z,27.27
2022-12-20T21:37:25.903Z,26.23
2022-12-20T21:39:47.884Z,29.90
2022-12-20T21:42:09.347Z,26.13
2022-12-20T21:44:30.823Z,28.60
2022-12-20T21:46:52.494Z,26.67
2022-12-20T21:49:14.074Z,26.00
2022-12-20T21:51:35.552Z,29.60
2022-12-20T21:53:59.673Z,29.27
2022-12-20T21:56:22.532Z,28.10
2022-12-20T21:58:44.872Z,29.40
2022-12-20T22:01:08.116Z,28.23
2022-12-20T22:03:29.892Z,30.57
2022-12-20T22:05:54.391Z,28.07
2022-12-20T22:08:17.044Z,32.00
2022-12-20T22:10:38.511Z,32.67
2022-12-20T22:12:59.960Z,32.40
2022-12-20T22:15:21.439Z,33.30
2022-12-20T22:17:42.913Z,31.53
2022-12-20T22:20:05.027Z,34.27
2022-12-20T22:22:26.551Z,35.97
2022-12-20T22:24:48.058Z,31.87
2022-12-20T22:27:11.625Z,31.03
2022-12-20T22:29:33.275Z,32.70
2022-12-20T22:31:54.822Z,34.43
2022-12-20T22:34:16.304Z,32.70
2022-12-20T22:36:37.899Z,33.63
2022-12-20T22:38:59.793Z,30.30
2022-12-20T22:41:27.881Z,29.77
2022-12-20T22:43:49.641Z,31.27
2022-12-20T22:46:12.322Z,28.97
2022-12-20T22:48:33.841Z,35.47
2022-12-20T22:51:11.459Z,30.43
2022-12-20T22:53:34.103Z,31.27
2022-12-20T22:55:55.588Z,31.70
2022-12-20T22:58:17.051Z,34.27
2022-12-20T23:00:38.498Z,31.37
2022-12-20T23:03:00.080Z,31.97
2022-12-20T23:05:21.730Z,29.43
2022-12-20T23:07:43.229Z,31.13
2022-12-20T23:10:25.055Z,31.20
2022-12-20T23:13:05.094Z,32.23
2022-12-20T23:15:41.744Z,27.43
2022-12-20T23:18:03.239Z,33.67
2022-12-20T23:20:43.487Z,30.30
2022-12-20T23:23:04.912Z,29.70
2022-12-20T23:25:26.400Z,29.03
2022-12-20T23:27:49.559Z,26.57
2022-12-20T23:30:13.546Z,29.37
2022-12-20T23:32:35.259Z,29.47
2022-12-20T23:34:56.740Z,27.93
2022-12-20T23:37:18.342Z,27.53
2022-12-20T23:39:39.779Z,30.50
2022-12-20T23:42:01.235Z,28.93
2022-12-20T23:44:22.791Z,30.90
2022-12-20T23:46:44.249Z,29.97
2022-12-20T23:49:06.066Z,26.77
2022-12-20T23:51:27.599Z,26.53
2022-12-20T23:53:51.018Z,30.23
2022-12-20T23:56:16.019Z,29.67
2022-12-20T23:58:38.072Z,30.77
